createdAt,value
2018-07-25T00:01:31.507Z,24.47
2018-07-25T00:02:31.478Z,24.39
2018-07-25T00:04:24.291Z,24.43
2018-07-25T00:05:24.252Z,24.36
2018-07-25T00:07:17.575Z,24.35
2018-07-25T00:08:17.539Z,24.32
2018-07-25T00:10:10.868Z,24.24
2018-07-25T00:11:10.822Z,24.24
2018-07-25T00:13:04.132Z,24.24
2018-07-25T00:14:04.113Z,24.26
2018-07-25T00:15:57.444Z,24.23
2018-07-25T00:16:57.396Z,24.16
2018-07-25T00:18:50.726Z,24.14
2018-07-25T00:19:50.693Z,24.06
2018-07-25T00:21:44.028Z,24.11
2018-07-25T00:22:43.988Z,24.06
2018-07-25T00:24:37.328Z,24.06
2018-07-25T00:25:37.278Z,24.01
2018-07-25T00:27:30.600Z,23.93
2018-07-25T00:28:30.544Z,23.96
2018-07-25T00:30:23.925Z,23.88
2018-07-25T00:31:23.839Z,23.87
2018-07-25T00:33:17.164Z,23.86
2018-07-25T00:34:17.142Z,23.84
2018-07-25T00:36:10.553Z,23.86
2018-07-25T00:37:10.440Z,23.91
2018-07-25T00:39:03.769Z,23.76
2018-07-25T00:40:03.754Z,23.69
2018-07-25T00:41:57.065Z,23.59
2018-07-25T00:42:57.005Z,23.63
2018-07-25T00:44:50.336Z,23.58
2018-07-25T00:45:50.299Z,23.61
2018-07-25T00:47:43.625Z,23.50
2018-07-25T00:48:43.584Z,23.48
2018-07-25T00:50:36.926Z,23.55
2018-07-25T00:51:36.904Z,23.54
2018-07-25T00:53:30.200Z,23.55
2018-07-25T00:54:30.190Z,23.44
2018-07-25T00:56:23.487Z,23.41
2018-07-25T00:57:23.456Z,23.41
2018-07-25T00:59:16.779Z,23.50
2018-07-25T01:00:16.754Z,23.47
2018-07-25T01:02:10.055Z,23.54
2018-07-25T01:03:10.037Z,23.51
2018-07-25T01:05:03.360Z,23.41
2018-07-25T01:06:03.321Z,23.41
2018-07-25T01:07:56.642Z,23.47
2018-07-25T01:08:56.603Z,23.44
2018-07-25T01:10:49.931Z,23.40
2018-07-25T01:11:49.892Z,23.46
2018-07-25T01:13:43.235Z,23.39
2018-07-25T01:14:43.181Z,23.40
2018-07-25T01:16:36.489Z,23.40
2018-07-25T01:17:36.468Z,23.27
2018-07-25T01:19:29.801Z,23.27
2018-07-25T01:20:29.742Z,23.34
2018-07-25T01:22:23.096Z,23.37
2018-07-25T01:23:23.047Z,23.27
2018-07-25T01:25:16.370Z,23.15
2018-07-25T01:26:16.317Z,23.18
2018-07-25T01:28:09.652Z,23.05
2018-07-25T01:29:09.638Z,23.12
2018-07-25T01:31:02.937Z,22.98
2018-07-25T01:32:02.901Z,22.99
2018-07-25T01:33:55.740Z,23.03
2018-07-25T01:34:55.702Z,23.00
2018-07-25T01:36:49.046Z,22.88
2018-07-25T01:37:48.998Z,22.87
2018-07-25T01:39:42.327Z,22.90
2018-07-25T01:40:42.279Z,22.83
2018-07-25T01:42:35.590Z,22.83
2018-07-25T01:43:35.565Z,22.70
2018-07-25T01:45:28.488Z,22.83
2018-07-25T01:46:28.346Z,22.80
2018-07-25T01:48:21.666Z,22.78
2018-07-25T01:49:21.646Z,22.75
2018-07-25T01:51:14.952Z,22.76
2018-07-25T01:52:14.916Z,22.72
2018-07-25T01:54:08.236Z,22.76
2018-07-25T01:55:08.211Z,22.78
2018-07-25T01:57:01.535Z,22.63
2018-07-25T01:58:01.518Z,22.69
2018-07-25T01:59:54.851Z,22.53
2018-07-25T02:00:54.786Z,22.54
2018-07-25T02:02:48.106Z,22.47
2018-07-25T02:03:48.095Z,22.43
2018-07-25T02:05:41.412Z,22.43
2018-07-25T02:06:41.366Z,22.38
2018-07-25T02:08:34.688Z,22.41
2018-07-25T02:09:34.703Z,22.39
2018-07-25T02:11:27.988Z,22.36
2018-07-25T02:12:27.941Z,22.33
2018-07-25T02:14:21.267Z,22.38
2018-07-25T02:15:21.232Z,22.30
2018-07-25T02:17:14.578Z,22.36
2018-07-25T02:18:14.538Z,22.29
2018-07-25T02:20:07.853Z,22.25
2018-07-25T02:21:07.817Z,22.17
2018-07-25T02:23:01.143Z,22.20
2018-07-25T02:24:01.094Z,22.13
2018-07-25T02:25:54.417Z,22.20
2018-07-25T02:26:54.373Z,22.15
2018-07-25T02:28:47.703Z,22.22
2018-07-25T02:29:47.667Z,22.15
2018-07-25T02:31:40.986Z,22.20
2018-07-25T02:32:40.942Z,22.17
2018-07-25T02:34:33.789Z,22.18
2018-07-25T02:35:33.734Z,22.17
2018-07-25T02:37:27.062Z,22.23
2018-07-25T02:38:27.018Z,22.15
2018-07-25T02:40:20.359Z,22.13
2018-07-25T02:41:20.323Z,22.22
2018-07-25T02:43:13.640Z,22.17
2018-07-25T02:44:13.619Z,22.25
2018-07-25T02:46:06.909Z,22.22
2018-07-25T02:47:06.880Z,22.23
2018-07-25T02:49:00.206Z,22.11
2018-07-25T02:50:00.163Z,22.17
2018-07-25T02:51:53.494Z,22.15
2018-07-25T02:52:53.456Z,22.04
2018-07-25T02:54:46.778Z,21.98
2018-07-25T02:55:46.728Z,21.98
2018-07-25T02:57:40.052Z,21.88
2018-07-25T02:58:40.027Z,21.82
2018-07-25T03:00:33.318Z,21.95
2018-07-25T03:01:33.293Z,21.89
2018-07-25T03:03:26.623Z,21.93
2018-07-25T03:04:26.575Z,21.91
2018-07-25T03:06:19.916Z,21.92
2018-07-25T03:07:19.870Z,21.80
2018-07-25T03:09:13.210Z,21.67
2018-07-25T03:10:13.145Z,21.77
2018-07-25T03:12:06.472Z,21.73
2018-07-25T03:13:06.428Z,21.73
2018-07-25T03:14:59.757Z,21.69
2018-07-25T03:15:59.713Z,21.67
2018-07-25T03:17:53.039Z,21.66
2018-07-25T03:18:52.988Z,21.73
2018-07-25T03:20:46.326Z,21.51
2018-07-25T03:21:46.276Z,21.54
2018-07-25T03:23:39.611Z,21.55
2018-07-25T03:24:39.556Z,21.51
2018-07-25T03:26:32.871Z,21.55
2018-07-25T03:27:32.848Z,21.51
2018-07-25T03:29:26.170Z,21.48
2018-07-25T03:30:26.126Z,21.54
2018-07-25T03:32:19.443Z,21.55
2018-07-25T03:33:19.435Z,21.50
2018-07-25T03:35:12.746Z,21.52
2018-07-25T03:36:12.706Z,21.48
2018-07-25T03:38:06.013Z,21.55
2018-07-25T03:39:06.003Z,21.46
2018-07-25T03:40:59.305Z,21.45
2018-07-25T03:41:59.258Z,21.45
2018-07-25T03:43:52.572Z,21.42
2018-07-25T03:44:52.546Z,21.40
2018-07-25T03:46:45.386Z,21.40
2018-07-25T03:47:45.337Z,21.37
2018-07-25T03:49:38.688Z,21.30
2018-07-25T03:50:38.630Z,21.32
2018-07-25T03:52:31.439Z,21.27
2018-07-25T03:53:31.404Z,21.22
2018-07-25T03:55:24.225Z,21.27
2018-07-25T03:56:24.209Z,21.29
2018-07-25T03:58:16.995Z,21.29
2018-07-25T03:59:16.970Z,21.21
2018-07-25T04:01:10.305Z,21.20
2018-07-25T04:02:10.279Z,21.15
2018-07-25T04:04:03.564Z,21.21
2018-07-25T04:05:03.540Z,21.21
2018-07-25T04:06:56.365Z,21.22
2018-07-25T04:07:56.320Z,21.20
2018-07-25T04:09:49.630Z,21.24
2018-07-25T04:10:49.589Z,21.24
2018-07-25T04:12:42.435Z,21.30
2018-07-25T04:13:42.385Z,21.29
2018-07-25T04:15:35.701Z,21.24
2018-07-25T04:16:35.661Z,21.27
2018-07-25T04:18:28.990Z,21.21
2018-07-25T04:19:28.949Z,21.30
2018-07-25T04:21:21.777Z,21.32
2018-07-25T04:22:21.746Z,21.37
2018-07-25T04:24:14.542Z,21.30
2018-07-25T04:25:14.508Z,21.27
2018-07-25T04:27:07.835Z,21.32
2018-07-25T04:28:07.793Z,21.35
2018-07-25T04:30:01.118Z,21.30
2018-07-25T04:31:01.078Z,21.29
2018-07-25T04:32:54.397Z,21.27
2018-07-25T04:33:54.354Z,21.24
2018-07-25T04:35:47.677Z,21.29
2018-07-25T04:36:47.656Z,21.33
2018-07-25T04:38:40.462Z,21.30
2018-07-25T04:39:40.427Z,21.33
2018-07-25T04:41:33.752Z,21.30
2018-07-25T04:42:33.735Z,21.25
2018-07-25T04:44:27.026Z,21.29
2018-07-25T04:45:26.982Z,21.25
2018-07-25T04:47:20.313Z,21.32
2018-07-25T04:48:20.281Z,21.37
2018-07-25T04:50:13.582Z,21.42
2018-07-25T04:51:13.546Z,21.35
2018-07-25T04:53:06.872Z,21.39
2018-07-25T04:54:06.829Z,21.33
2018-07-25T04:56:00.189Z,21.36
2018-07-25T04:57:00.122Z,21.39
2018-07-25T04:58:53.444Z,21.36
2018-07-25T04:59:53.401Z,21.37
2018-07-25T05:01:46.208Z,21.35
2018-07-25T05:02:46.178Z,21.40
2018-07-25T05:04:39.028Z,21.39
2018-07-25T05:05:38.963Z,21.45
2018-07-25T05:07:32.281Z,21.46
2018-07-25T05:08:32.248Z,21.51
2018-07-25T05:10:25.585Z,21.51
2018-07-25T05:11:25.533Z,21.48
2018-07-25T05:13:18.858Z,21.51
2018-07-25T05:14:18.828Z,21.54
2018-07-25T05:16:12.134Z,21.54
2018-07-25T05:17:12.088Z,21.58
2018-07-25T05:19:04.920Z,21.58
2018-07-25T05:20:04.880Z,21.61
2018-07-25T05:21:58.195Z,21.66
2018-07-25T05:22:58.170Z,21.66
2018-07-25T05:24:51.495Z,21.69
2018-07-25T05:25:51.463Z,21.76
2018-07-25T05:27:44.770Z,21.75
2018-07-25T05:28:44.735Z,21.75
2018-07-25T05:30:38.060Z,21.82
2018-07-25T05:31:38.015Z,21.73
2018-07-25T05:33:30.869Z,21.82
2018-07-25T05:34:30.791Z,21.89
2018-07-25T05:36:24.126Z,21.99
2018-07-25T05:37:24.089Z,21.96
2018-07-25T05:39:16.910Z,21.96
2018-07-25T05:40:16.868Z,21.93
2018-07-25T05:42:09.697Z,22.08
2018-07-25T05:43:09.661Z,22.14
2018-07-25T05:45:02.479Z,22.20
2018-07-25T05:46:02.441Z,22.13
2018-07-25T05:47:55.771Z,22.29
2018-07-25T05:48:55.726Z,22.35
2018-07-25T05:50:49.046Z,22.38
2018-07-25T05:51:49.007Z,22.44
2018-07-25T05:53:42.322Z,22.53
2018-07-25T05:54:42.295Z,22.50
2018-07-25T05:56:35.642Z,22.54
2018-07-25T05:57:35.602Z,22.51
2018-07-25T05:59:28.410Z,22.65
2018-07-25T06:00:28.355Z,22.78
2018-07-25T06:02:21.195Z,22.70
2018-07-25T06:03:21.196Z,22.78
2018-07-25T06:05:13.991Z,22.88
2018-07-25T06:06:14.004Z,22.96
2018-07-25T06:08:07.248Z,22.96
2018-07-25T06:09:07.214Z,23.09
2018-07-25T06:11:00.572Z,23.12
2018-07-25T06:12:00.512Z,23.25
2018-07-25T06:13:53.322Z,23.32
2018-07-25T06:14:53.296Z,23.32
2018-07-25T06:16:46.617Z,23.44
2018-07-25T06:17:46.578Z,23.47
2018-07-25T06:19:39.897Z,23.59
2018-07-25T06:20:39.876Z,23.61
2018-07-25T06:22:32.711Z,23.62
2018-07-25T06:23:32.649Z,23.68
2018-07-25T06:25:25.963Z,23.83
2018-07-25T06:26:25.958Z,23.74
2018-07-25T06:28:19.277Z,23.83
2018-07-25T06:29:19.228Z,23.80
2018-07-25T06:31:12.583Z,23.87
2018-07-25T06:32:12.512Z,23.87
2018-07-25T06:34:05.828Z,24.03
2018-07-25T06:35:05.793Z,24.03
2018-07-25T06:36:58.631Z,24.03
2018-07-25T06:37:58.648Z,24.06
2018-07-25T06:39:51.914Z,24.17
2018-07-25T06:40:51.885Z,24.24
2018-07-25T06:42:45.233Z,24.29
2018-07-25T06:43:45.183Z,24.32
2018-07-25T06:45:38.491Z,24.33
2018-07-25T06:46:38.454Z,24.38
2018-07-25T06:48:31.793Z,24.39
2018-07-25T06:49:31.758Z,24.51
2018-07-25T06:51:25.084Z,24.57
2018-07-25T06:52:25.049Z,24.54
2018-07-25T06:54:18.379Z,24.57
2018-07-25T06:55:18.358Z,24.57
2018-07-25T06:57:11.702Z,24.61
2018-07-25T06:58:11.615Z,24.66
2018-07-25T07:00:04.948Z,24.70
2018-07-25T07:01:04.909Z,24.73
2018-07-25T07:02:57.729Z,24.76
2018-07-25T07:03:57.697Z,24.73
2018-07-25T07:05:50.998Z,24.84
2018-07-25T07:06:51.027Z,24.89
2018-07-25T07:08:43.792Z,24.95
2018-07-25T07:09:43.767Z,24.95
2018-07-25T07:11:36.587Z,24.99
2018-07-25T07:12:36.568Z,25.03
2018-07-25T07:14:29.408Z,25.11
2018-07-25T07:15:29.339Z,25.16
2018-07-25T07:17:22.692Z,25.26
2018-07-25T07:18:22.658Z,25.26
2018-07-25T07:20:15.483Z,25.31
2018-07-25T07:21:15.445Z,25.43
2018-07-25T07:23:08.761Z,25.59
2018-07-25T07:24:08.738Z,25.47
2018-07-25T07:26:02.040Z,25.65
2018-07-25T07:27:02.006Z,25.70
2018-07-25T07:28:55.325Z,25.73
2018-07-25T07:29:55.303Z,25.83
2018-07-25T07:31:48.614Z,25.88
2018-07-25T07:32:48.583Z,25.98
2018-07-25T07:34:41.411Z,25.99
2018-07-25T07:35:41.375Z,26.09
2018-07-25T07:37:34.225Z,26.13
2018-07-25T07:38:34.171Z,26.03
2018-07-25T07:40:26.997Z,26.03
2018-07-25T07:41:26.964Z,25.91
2018-07-25T07:43:20.297Z,26.03
2018-07-25T07:44:20.270Z,26.02
2018-07-25T07:46:13.590Z,26.22
2018-07-25T07:47:13.545Z,26.25
2018-07-25T07:49:06.881Z,26.25
2018-07-25T07:50:06.829Z,26.25
2018-07-25T07:51:59.692Z,26.28
2018-07-25T07:52:59.621Z,26.37
2018-07-25T07:54:52.955Z,26.34
2018-07-25T07:55:52.916Z,26.34
2018-07-25T07:57:46.236Z,26.37
2018-07-25T07:58:46.211Z,26.34
2018-07-25T08:00:39.542Z,26.43
2018-07-25T08:01:39.505Z,26.53
2018-07-25T08:03:32.830Z,26.48
2018-07-25T08:04:32.789Z,26.55
2018-07-25T08:06:26.121Z,26.58
2018-07-25T08:07:26.081Z,26.56
2018-07-25T08:09:18.901Z,26.65
2018-07-25T08:10:18.873Z,26.56
2018-07-25T08:12:11.682Z,26.58
2018-07-25T08:13:11.664Z,26.71
2018-07-25T08:15:04.992Z,26.74
2018-07-25T08:16:04.945Z,26.83
2018-07-25T08:17:57.813Z,26.84
2018-07-25T08:18:57.750Z,26.89
2018-07-25T08:20:50.584Z,27.00
2018-07-25T08:21:50.544Z,27.11
2018-07-25T08:23:44.137Z,27.17
2018-07-25T08:24:43.356Z,27.17
2018-07-25T08:26:36.226Z,27.21
2018-07-25T08:27:36.178Z,27.26
2018-07-25T08:29:29.746Z,27.33
2018-07-25T08:30:29.521Z,27.47
2018-07-25T08:32:22.827Z,27.55
2018-07-25T08:33:22.785Z,27.52
2018-07-25T08:35:15.675Z,27.67
2018-07-25T08:36:15.582Z,27.68
2018-07-25T08:38:08.902Z,27.80
2018-07-25T08:39:08.882Z,27.80
2018-07-25T08:41:01.723Z,27.90
2018-07-25T08:42:01.684Z,27.82
2018-07-25T08:43:54.490Z,28.00
2018-07-25T08:44:54.472Z,28.05
2018-07-25T08:46:47.847Z,28.07
2018-07-25T08:47:47.767Z,28.01
2018-07-25T08:49:41.087Z,28.08
2018-07-25T08:50:41.063Z,28.12
2018-07-25T08:52:34.425Z,28.23
2018-07-25T08:53:34.353Z,28.30
2018-07-25T08:55:27.718Z,28.35
2018-07-25T08:56:27.651Z,28.39
2018-07-25T08:58:21.007Z,28.56
2018-07-25T08:59:20.983Z,28.60
2018-07-25T09:01:14.318Z,28.48
2018-07-25T09:02:14.292Z,28.70
2018-07-25T09:04:07.588Z,28.78
2018-07-25T09:05:07.583Z,28.78
2018-07-25T09:07:00.909Z,28.86
2018-07-25T09:08:00.857Z,28.96
2018-07-25T09:09:54.202Z,28.93
2018-07-25T09:10:54.164Z,28.93
2018-07-25T09:12:47.593Z,29.01
2018-07-25T09:13:47.484Z,29.10
2018-07-25T09:15:40.807Z,29.16
2018-07-25T09:16:40.768Z,29.31
2018-07-25T09:18:34.073Z,29.23
2018-07-25T09:19:34.059Z,29.24
2018-07-25T09:21:26.892Z,29.34
2018-07-25T09:22:26.853Z,29.32
2018-07-25T09:24:20.189Z,29.41
2018-07-25T09:25:20.264Z,29.44
2018-07-25T09:27:13.483Z,29.54
2018-07-25T09:28:13.462Z,29.51
2018-07-25T09:30:06.774Z,29.66
2018-07-25T09:31:06.743Z,29.72
2018-07-25T09:33:00.092Z,29.75
2018-07-25T09:34:00.089Z,29.79
2018-07-25T09:35:52.869Z,29.87
2018-07-25T09:36:52.843Z,29.93
2018-07-25T09:38:46.174Z,29.91
2018-07-25T09:39:46.144Z,29.91
2018-07-25T09:41:39.478Z,30.09
2018-07-25T09:42:39.443Z,30.08
2018-07-25T09:44:32.783Z,30.13
2018-07-25T09:45:32.742Z,30.27
2018-07-25T09:47:26.113Z,30.27
2018-07-25T09:48:26.071Z,30.31
2018-07-25T09:50:18.874Z,30.47
2018-07-25T09:51:18.843Z,30.47
2018-07-25T09:53:11.809Z,30.57
2018-07-25T09:54:11.663Z,30.55
2018-07-25T09:56:04.503Z,30.69
2018-07-25T09:57:04.451Z,30.73
2018-07-25T09:58:57.831Z,30.80
2018-07-25T09:59:57.755Z,30.87
2018-07-25T10:01:50.586Z,30.99
2018-07-25T10:02:50.569Z,30.90
2018-07-25T10:04:43.440Z,31.12
2018-07-25T10:05:43.396Z,31.18
2018-07-25T10:07:36.377Z,31.47
2018-07-25T10:08:36.192Z,31.80
2018-07-25T10:10:29.519Z,32.34
2018-07-25T10:11:29.515Z,32.68
2018-07-25T10:13:22.349Z,33.19
2018-07-25T10:14:22.311Z,33.64
2018-07-25T10:16:15.634Z,34.18
2018-07-25T10:17:15.651Z,34.50
2018-07-25T10:19:08.957Z,35.15
2018-07-25T10:20:08.950Z,35.33
2018-07-25T10:22:02.272Z,35.70
2018-07-25T10:23:02.313Z,35.86
2018-07-25T10:24:55.594Z,36.08
2018-07-25T10:25:55.570Z,36.27
2018-07-25T10:27:48.431Z,37.01
2018-07-25T10:28:48.401Z,37.17
2018-07-25T10:30:41.794Z,37.49
2018-07-25T10:31:41.723Z,37.49
2018-07-25T10:33:35.063Z,37.92
2018-07-25T10:34:35.043Z,38.17
2018-07-25T10:36:27.907Z,38.30
2018-07-25T10:37:27.883Z,38.09
2018-07-25T10:39:21.228Z,38.31
2018-07-25T10:40:21.203Z,38.27
2018-07-25T10:42:14.553Z,38.91
2018-07-25T10:43:14.521Z,39.17
2018-07-25T10:45:07.372Z,38.77
2018-07-25T10:46:07.362Z,38.42
2018-07-25T10:48:00.302Z,39.02
2018-07-25T10:49:00.263Z,39.38
2018-07-25T10:50:53.658Z,39.46
2018-07-25T10:51:53.606Z,39.46
2018-07-25T10:53:46.948Z,39.74
2018-07-25T10:54:46.942Z,39.92
2018-07-25T10:56:39.821Z,40.20
2018-07-25T10:57:39.773Z,40.02
2018-07-25T10:59:32.637Z,40.16
2018-07-25T11:00:32.616Z,40.16
2018-07-25T11:02:25.461Z,40.08
2018-07-25T11:03:25.450Z,39.97
2018-07-25T11:05:18.288Z,40.14
2018-07-25T11:06:18.278Z,40.00
2018-07-25T11:08:11.639Z,39.52
2018-07-25T11:09:11.608Z,39.89
2018-07-25T11:11:04.987Z,40.08
2018-07-25T11:12:04.943Z,40.23
2018-07-25T11:13:58.315Z,40.09
2018-07-25T11:14:58.272Z,40.27
2018-07-25T11:16:51.632Z,40.68
2018-07-25T11:17:51.603Z,40.90
2018-07-25T11:19:44.972Z,40.69
2018-07-25T11:20:44.941Z,40.80
2018-07-25T11:22:37.799Z,40.38
2018-07-25T11:23:37.769Z,40.70
2018-07-25T11:25:31.110Z,40.88
2018-07-25T11:26:31.095Z,41.26
2018-07-25T11:28:24.459Z,41.75
2018-07-25T11:29:24.453Z,41.53
2018-07-25T11:31:17.802Z,40.88
2018-07-25T11:32:17.783Z,40.02
2018-07-25T11:34:11.209Z,40.49
2018-07-25T11:35:11.109Z,40.78
2018-07-25T11:37:03.958Z,39.87
2018-07-25T11:38:03.965Z,39.70
2018-07-25T11:39:57.305Z,39.99
2018-07-25T11:40:57.279Z,39.97
2018-07-25T11:42:50.663Z,40.70
2018-07-25T11:43:50.735Z,41.03
2018-07-25T11:45:43.978Z,40.97
2018-07-25T11:46:43.944Z,40.72
2018-07-25T11:48:36.801Z,40.92
2018-07-25T11:49:36.797Z,40.78
2018-07-25T11:51:30.150Z,40.12
2018-07-25T11:52:30.135Z,40.49
2018-07-25T11:54:23.498Z,40.14
2018-07-25T11:55:23.567Z,40.44
2018-07-25T11:57:16.345Z,40.90
2018-07-25T11:58:16.327Z,41.16
2018-07-25T12:00:11.270Z,41.28
2018-07-25T12:01:09.662Z,41.44
2018-07-25T12:03:02.973Z,41.80
2018-07-25T12:04:02.976Z,41.85
2018-07-25T12:05:56.344Z,42.06
2018-07-25T12:06:56.284Z,42.35
2018-07-25T12:08:49.683Z,41.62
2018-07-25T12:09:49.618Z,41.55
2018-07-25T12:11:42.475Z,41.71
2018-07-25T12:12:42.463Z,42.21
2018-07-25T12:14:35.325Z,42.47
2018-07-25T12:15:35.310Z,42.76
2018-07-25T12:17:28.169Z,42.73
2018-07-25T12:18:28.140Z,42.62
2018-07-25T12:20:21.035Z,41.94
2018-07-25T12:21:21.049Z,41.99
2018-07-25T12:23:14.335Z,41.83
2018-07-25T12:24:14.346Z,42.16
2018-07-25T12:26:07.701Z,42.48
2018-07-25T12:27:07.679Z,42.55
2018-07-25T12:29:00.555Z,42.69
2018-07-25T12:30:00.505Z,42.76
2018-07-25T12:31:53.880Z,42.85
2018-07-25T12:32:53.820Z,42.91
2018-07-25T12:34:47.189Z,42.84
2018-07-25T12:35:47.185Z,43.06
2018-07-25T12:37:40.564Z,43.07
2018-07-25T12:38:40.499Z,43.38
2018-07-25T12:40:33.846Z,43.30
2018-07-25T12:41:33.884Z,43.20
2018-07-25T12:43:27.208Z,43.36
2018-07-25T12:44:27.182Z,43.42
2018-07-25T12:46:20.030Z,43.35
2018-07-25T12:47:20.031Z,43.01
2018-07-25T12:49:13.376Z,42.54
2018-07-25T12:50:13.346Z,42.51
2018-07-25T12:52:06.700Z,42.16
2018-07-25T12:53:06.694Z,41.75
2018-07-25T12:54:59.531Z,41.28
2018-07-25T12:55:59.506Z,40.66
2018-07-25T12:57:52.871Z,39.77
2018-07-25T12:58:52.845Z,39.36
2018-07-25T13:00:46.190Z,39.09
2018-07-25T13:01:46.163Z,38.86
2018-07-25T13:03:39.020Z,38.58
2018-07-25T13:04:38.977Z,38.69
2018-07-25T13:06:32.331Z,38.89
2018-07-25T13:07:32.343Z,38.97
2018-07-25T13:09:25.212Z,39.11
2018-07-25T13:10:25.194Z,39.12
2018-07-25T13:12:18.487Z,39.03
2018-07-25T13:13:18.468Z,38.86
2018-07-25T13:15:11.323Z,38.52
2018-07-25T13:16:11.288Z,38.27
2018-07-25T13:18:04.179Z,38.05
2018-07-25T13:19:04.125Z,37.84
2018-07-25T13:20:57.451Z,37.42
2018-07-25T13:21:57.448Z,37.53
2018-07-25T13:23:50.797Z,37.68
2018-07-25T13:24:50.763Z,37.68
2018-07-25T13:26:44.086Z,38.14
2018-07-25T13:27:44.073Z,38.33
2018-07-25T13:29:37.456Z,38.99
2018-07-25T13:30:37.394Z,39.18
2018-07-25T13:32:30.776Z,39.71
2018-07-25T13:33:30.734Z,39.58
2018-07-25T13:35:23.589Z,38.82
2018-07-25T13:36:23.558Z,39.02
2018-07-25T13:38:16.384Z,39.30
2018-07-25T13:39:16.374Z,39.25
2018-07-25T13:41:09.732Z,39.85
2018-07-25T13:42:09.704Z,39.90
2018-07-25T13:44:03.058Z,40.04
2018-07-25T13:45:03.017Z,40.09
2018-07-25T13:46:56.415Z,40.20
2018-07-25T13:47:56.347Z,40.24
2018-07-25T13:49:49.213Z,40.46
2018-07-25T13:50:49.174Z,40.04
2018-07-25T13:52:42.013Z,39.90
2018-07-25T13:53:42.000Z,39.48
2018-07-25T13:55:35.365Z,39.07
2018-07-25T13:56:35.327Z,38.86
2018-07-25T13:58:28.657Z,38.48
2018-07-25T13:59:28.645Z,38.30
2018-07-25T14:01:21.993Z,37.96
2018-07-25T14:02:21.974Z,37.84
2018-07-25T14:04:14.810Z,37.55
2018-07-25T14:05:14.816Z,37.51
2018-07-25T14:07:08.188Z,37.87
2018-07-25T14:08:08.115Z,38.14
2018-07-25T14:10:01.446Z,38.73
2018-07-25T14:11:01.429Z,39.09
2018-07-25T14:12:54.784Z,39.59
2018-07-25T14:13:54.740Z,39.94
2018-07-25T14:15:47.614Z,40.27
2018-07-25T14:16:47.572Z,40.46
2018-07-25T14:18:40.409Z,40.68
2018-07-25T14:19:40.407Z,40.58
2018-07-25T14:21:33.250Z,40.66
2018-07-25T14:22:33.210Z,40.95
2018-07-25T14:24:26.148Z,41.26
2018-07-25T14:25:26.039Z,41.50
2018-07-25T14:27:18.922Z,41.66
2018-07-25T14:28:18.876Z,41.71
2018-07-25T14:30:12.278Z,41.88
2018-07-25T14:31:12.201Z,41.90
2018-07-25T14:33:05.584Z,42.19
2018-07-25T14:34:05.552Z,42.35
2018-07-25T14:35:58.875Z,42.43
2018-07-25T14:36:58.861Z,42.51
2018-07-25T14:38:51.720Z,42.88
2018-07-25T14:39:51.767Z,42.95
2018-07-25T14:41:46.054Z,42.82
2018-07-25T14:42:46.011Z,42.88
2018-07-25T14:44:39.396Z,42.72
2018-07-25T14:45:39.364Z,42.38
2018-07-25T14:47:32.740Z,41.99
2018-07-25T14:48:32.707Z,41.16
2018-07-25T14:50:26.017Z,41.40
2018-07-25T14:51:26.191Z,41.87
2018-07-25T14:53:20.368Z,41.97
2018-07-25T14:54:20.429Z,41.47
2018-07-25T14:56:14.670Z,40.87
2018-07-25T14:57:14.661Z,40.78
2018-07-25T14:59:08.051Z,41.22
2018-07-25T15:00:08.038Z,41.14
2018-07-25T15:02:01.359Z,41.25
2018-07-25T15:03:01.337Z,40.85
2018-07-25T15:04:54.692Z,40.00
2018-07-25T15:05:54.677Z,40.54
2018-07-25T15:07:48.042Z,40.09
2018-07-25T15:08:48.021Z,40.08
2018-07-25T15:10:41.332Z,39.67
2018-07-25T15:11:41.313Z,39.87
2018-07-25T15:13:34.668Z,38.73
2018-07-25T15:14:34.641Z,37.75
2018-07-25T15:16:28.009Z,37.71
2018-07-25T15:17:27.988Z,37.94
2018-07-25T15:19:21.335Z,37.55
2018-07-25T15:20:21.298Z,37.53
2018-07-25T15:22:14.138Z,36.93
2018-07-25T15:23:14.111Z,36.67
2018-07-25T15:25:06.989Z,36.86
2018-07-25T15:26:06.941Z,37.03
2018-07-25T15:27:59.791Z,37.48
2018-07-25T15:28:59.852Z,37.53
2018-07-25T15:30:53.116Z,37.71
2018-07-25T15:31:53.089Z,37.58
2018-07-25T15:33:45.917Z,37.39
2018-07-25T15:34:45.903Z,37.44
2018-07-25T15:36:39.233Z,37.70
2018-07-25T15:37:39.203Z,37.80
2018-07-25T15:39:32.554Z,38.34
2018-07-25T15:40:32.533Z,38.26
2018-07-25T15:42:25.908Z,38.09
2018-07-25T15:43:25.854Z,37.93
2018-07-25T15:45:18.706Z,37.82
2018-07-25T15:46:18.676Z,37.92
2018-07-25T15:48:12.033Z,37.44
2018-07-25T15:49:12.013Z,37.68
2018-07-25T15:51:05.364Z,37.75
2018-07-25T15:52:05.328Z,37.42
2018-07-25T15:53:58.191Z,38.27
2018-07-25T15:54:58.156Z,38.31
2018-07-25T15:56:51.008Z,38.46
2018-07-25T15:57:50.968Z,38.26
2018-07-25T15:59:43.903Z,38.49
2018-07-25T16:00:43.800Z,38.71
2018-07-25T16:02:36.734Z,39.12
2018-07-25T16:03:36.623Z,39.36
2018-07-25T16:05:29.975Z,39.51
2018-07-25T16:06:29.948Z,39.55
2018-07-25T16:08:23.288Z,39.74
2018-07-25T16:09:23.254Z,39.85
2018-07-25T16:11:16.626Z,39.46
2018-07-25T16:12:16.593Z,39.65
2018-07-25T16:14:09.928Z,39.78
2018-07-25T16:15:09.898Z,39.55
2018-07-25T16:17:03.289Z,39.70
2018-07-25T16:18:03.229Z,39.89
2018-07-25T16:19:56.541Z,39.90
2018-07-25T16:20:56.553Z,39.80
2018-07-25T16:22:49.888Z,39.17
2018-07-25T16:23:49.859Z,39.30
2018-07-25T16:25:42.710Z,39.38
2018-07-25T16:26:42.698Z,39.17
2018-07-25T16:28:36.045Z,38.80
2018-07-25T16:29:36.001Z,38.45
2018-07-25T16:31:29.038Z,38.27
2018-07-25T16:32:28.830Z,38.34
2018-07-25T16:34:21.710Z,38.28
2018-07-25T16:35:21.683Z,38.30
2018-07-25T16:37:14.543Z,38.30
2018-07-25T16:38:14.518Z,38.28
2018-07-25T16:40:07.876Z,38.36
2018-07-25T16:41:07.829Z,38.23
2018-07-25T16:43:01.186Z,38.23
2018-07-25T16:44:01.144Z,37.92
2018-07-25T16:45:54.582Z,37.80
2018-07-25T16:46:54.482Z,38.01
2018-07-25T16:48:47.834Z,38.11
2018-07-25T16:49:47.840Z,37.89
2018-07-25T16:51:40.641Z,37.96
2018-07-25T16:52:41.406Z,38.01
2018-07-25T16:54:33.973Z,38.04
2018-07-25T16:55:33.921Z,37.94
2018-07-25T16:57:27.264Z,37.58
2018-07-25T16:58:27.240Z,37.51
2018-07-25T17:00:20.104Z,37.29
2018-07-25T17:01:20.059Z,37.08
2018-07-25T17:03:12.916Z,37.18
2018-07-25T17:04:12.897Z,37.48
2018-07-25T17:06:05.716Z,37.48
2018-07-25T17:07:05.690Z,37.48
2018-07-25T17:08:58.516Z,37.06
2018-07-25T17:09:58.503Z,36.91
2018-07-25T17:11:51.351Z,36.89
2018-07-25T17:12:51.307Z,36.79
2018-07-25T17:14:44.151Z,36.68
2018-07-25T17:15:44.154Z,36.67
2018-07-25T17:17:37.001Z,36.58
2018-07-25T17:18:36.965Z,36.55
2018-07-25T17:20:29.847Z,36.42
2018-07-25T17:21:29.765Z,36.46
2018-07-25T17:23:22.609Z,36.43
2018-07-25T17:24:22.579Z,36.31
2018-07-25T17:26:15.942Z,36.23
2018-07-25T17:27:15.916Z,36.35
2018-07-25T17:29:09.222Z,36.30
2018-07-25T17:30:09.210Z,36.18
2018-07-25T17:32:02.566Z,36.08
2018-07-25T17:33:02.527Z,36.04
2018-07-25T17:34:55.876Z,35.85
2018-07-25T17:35:55.827Z,35.79
2018-07-25T17:37:49.172Z,35.68
2018-07-25T17:38:49.136Z,35.79
2018-07-25T17:40:42.035Z,35.79
2018-07-25T17:41:41.945Z,35.67
2018-07-25T17:43:35.276Z,35.64
2018-07-25T17:44:35.246Z,35.58
2018-07-25T17:46:28.108Z,35.36
2018-07-25T17:47:28.073Z,35.37
2018-07-25T17:49:20.931Z,35.27
2018-07-25T17:50:20.953Z,35.12
2018-07-25T17:52:13.726Z,34.71
2018-07-25T17:53:13.688Z,34.52
2018-07-25T17:55:06.528Z,34.52
2018-07-25T17:56:06.513Z,34.43
2018-07-25T17:57:59.385Z,34.48
2018-07-25T17:58:59.316Z,34.52
2018-07-25T18:00:52.164Z,34.40
2018-07-25T18:01:52.133Z,34.33
2018-07-25T18:03:45.509Z,34.25
2018-07-25T18:04:45.436Z,34.25
2018-07-25T18:06:38.796Z,34.21
2018-07-25T18:07:38.766Z,34.33
2018-07-25T18:09:32.091Z,34.36
2018-07-25T18:10:32.068Z,34.23
2018-07-25T18:12:24.917Z,34.33
2018-07-25T18:13:24.882Z,34.13
2018-07-25T18:15:17.762Z,33.86
2018-07-25T18:16:17.737Z,33.90
2018-07-25T18:18:11.093Z,33.94
2018-07-25T18:19:11.041Z,34.03
2018-07-25T18:21:03.884Z,33.86
2018-07-25T18:22:03.853Z,33.74
2018-07-25T18:23:57.174Z,33.71
2018-07-25T18:24:57.159Z,33.68
2018-07-25T18:26:49.979Z,33.62
2018-07-25T18:27:49.989Z,33.57
2018-07-25T18:29:42.823Z,33.43
2018-07-25T18:30:42.784Z,33.43
2018-07-25T18:32:36.102Z,33.24
2018-07-25T18:33:36.085Z,33.27
2018-07-25T18:35:28.907Z,33.01